createdAt,value
2018-02-17T00:00:45.709Z,24.67
2018-02-17T00:01:48.211Z,20.60
2018-02-17T00:02:50.686Z,22.08
2018-02-17T00:03:53.178Z,19.92
2018-02-17T00:04:55.691Z,15.85
2018-02-17T00:05:58.178Z,23.98
2018-02-17T00:07:00.669Z,27.02
2018-02-17T00:08:03.171Z,24.48
2018-02-17T00:09:05.673Z,27.67
2018-02-17T00:10:08.155Z,24.48
2018-02-17T00:11:10.643Z,26.87
2018-02-17T00:12:13.134Z,22.10
2018-02-17T00:13:15.612Z,26.48
2018-02-17T00:14:18.102Z,20.77
2018-02-17T00:15:20.609Z,27.40
2018-02-17T00:16:23.079Z,26.37
2018-02-17T00:17:25.564Z,24.55
2018-02-17T00:18:28.050Z,25.58
2018-02-17T00:19:30.528Z,27.13
2018-02-17T00:20:33.015Z,18.80
2018-02-17T00:21:35.503Z,24.30
2018-02-17T00:22:37.986Z,19.65
2018-02-17T00:23:40.528Z,24.25
2018-02-17T00:24:43.013Z,37.50
2018-02-17T00:25:45.497Z,28.75
2018-02-17T00:26:47.973Z,22.27
2018-02-17T00:27:50.462Z,24.35
2018-02-17T00:28:52.935Z,18.98
2018-02-17T00:29:55.437Z,24.63
2018-02-17T00:30:57.927Z,22.80
2018-02-17T00:32:00.414Z,28.17
2018-02-17T00:33:02.904Z,21.42
2018-02-17T00:34:05.410Z,30.42
2018-02-17T00:35:07.913Z,19.70
2018-02-17T00:36:10.407Z,28.00
2018-02-17T00:37:12.905Z,25.83
2018-02-17T00:38:15.465Z,23.58
2018-02-17T00:39:18.024Z,29.60
2018-02-17T00:40:20.513Z,21.25
2018-02-17T00:41:23.028Z,22.83
2018-02-17T00:42:25.500Z,24.45
2018-02-17T00:43:27.975Z,23.48
2018-02-17T00:44:30.448Z,24.00
2018-02-17T00:45:32.944Z,22.87
2018-02-17T00:46:35.462Z,23.45
2018-02-17T00:47:37.948Z,20.10
2018-02-17T00:48:40.459Z,21.45
2018-02-17T00:49:42.941Z,22.70
2018-02-17T00:50:45.431Z,35.05
2018-02-17T00:51:47.909Z,28.00
2018-02-17T00:52:50.391Z,21.80
2018-02-17T00:53:52.867Z,29.77
2018-02-17T00:54:55.402Z,28.42
2018-02-17T00:55:57.895Z,25.42
2018-02-17T00:57:00.378Z,29.60
2018-02-17T00:58:02.861Z,23.62
2018-02-17T00:59:05.345Z,20.83
2018-02-17T01:00:07.819Z,22.42
2018-02-17T01:01:10.295Z,22.08
2018-02-17T01:02:12.767Z,27.37
2018-02-17T01:03:15.258Z,24.90
2018-02-17T01:04:17.757Z,22.60
2018-02-17T01:05:20.259Z,25.45
2018-02-17T01:06:22.738Z,21.50
2018-02-17T01:07:25.233Z,25.35
2018-02-17T01:08:27.718Z,24.50
2018-02-17T01:09:30.220Z,23.05
2018-02-17T01:10:32.695Z,23.27
2018-02-17T01:11:35.167Z,25.85
2018-02-17T01:12:37.661Z,27.80
2018-02-17T01:13:40.146Z,28.12
2018-02-17T01:14:42.634Z,31.23
2018-02-17T01:15:45.130Z,26.42
2018-02-17T01:16:47.629Z,35.33
2018-02-17T01:17:50.114Z,24.30
2018-02-17T01:18:52.599Z,18.92
2018-02-17T01:19:55.080Z,20.77
2018-02-17T01:20:57.551Z,30.92
2018-02-17T01:22:00.037Z,30.92
2018-02-17T01:23:02.522Z,27.52
2018-02-17T01:24:05.017Z,28.70
2018-02-17T01:25:07.493Z,19.80
2018-02-17T01:26:10.002Z,21.25
2018-02-17T01:27:12.523Z,26.35
2018-02-17T01:28:15.095Z,22.62
2018-02-17T01:29:17.568Z,25.65
2018-02-17T01:30:20.040Z,26.67
2018-02-17T01:31:22.576Z,26.27
2018-02-17T01:32:25.049Z,32.35
2018-02-17T01:33:27.542Z,35.50
2018-02-17T01:34:30.034Z,27.65
2018-02-17T01:35:32.508Z,32.80
2018-02-17T01:36:34.980Z,24.45
2018-02-17T01:37:37.529Z,25.73
2018-02-17T01:38:40.014Z,25.50
2018-02-17T01:39:42.489Z,25.55
2018-02-17T01:40:44.959Z,25.27
2018-02-17T01:41:47.444Z,23.05
2018-02-17T01:42:49.920Z,23.33
2018-02-17T01:43:52.411Z,31.80
2018-02-17T01:44:54.910Z,23.23
2018-02-17T01:45:57.402Z,26.90
2018-02-17T01:46:59.876Z,25.15
2018-02-17T01:48:02.347Z,24.75
2018-02-17T01:49:04.845Z,31.52
2018-02-17T07:57:40.998Z,18.33
2018-02-17T07:58:43.463Z,15.77
2018-02-17T07:59:45.946Z,17.12
2018-02-17T08:00:48.441Z,16.95
2018-02-17T08:01:50.929Z,15.23
2018-02-17T08:02:53.399Z,18.02
2018-02-17T08:03:55.887Z,20.75
2018-02-17T08:04:58.351Z,12.10
2018-02-17T08:06:00.836Z,20.17
2018-02-17T08:07:03.321Z,16.20
2018-02-17T08:08:05.810Z,22.62
2018-02-17T08:09:08.283Z,21.95
2018-02-17T08:10:10.800Z,22.40
2018-02-17T08:11:13.495Z,22.58
2018-02-17T08:12:16.007Z,18.48
2018-02-17T08:13:18.466Z,16.95
2018-02-17T08:14:20.935Z,18.42
2018-02-17T08:15:23.485Z,24.00
2018-02-17T08:16:25.946Z,17.83
2018-02-17T08:17:28.466Z,16.62
2018-02-17T08:18:30.942Z,13.55
2018-02-17T08:19:33.407Z,17.62
2018-02-17T08:20:35.904Z,13.90
2018-02-17T08:21:38.379Z,11.80
2018-02-17T08:22:40.847Z,13.98
2018-02-17T08:23:43.682Z,18.90
2018-02-17T08:24:46.166Z,17.02
2018-02-17T08:25:48.679Z,26.40
2018-02-17T08:26:51.161Z,17.25
2018-02-17T08:27:53.632Z,17.75
2018-02-17T08:28:56.109Z,24.65
2018-02-17T08:29:58.593Z,16.00
2018-02-17T08:31:01.109Z,16.52
2018-02-17T08:32:03.672Z,19.90
2018-02-17T08:33:06.139Z,13.65
2018-02-17T08:34:08.615Z,16.48
2018-02-17T08:35:11.096Z,19.40
2018-02-17T08:36:13.599Z,20.00
2018-02-17T08:37:16.075Z,18.37
2018-02-17T08:38:18.564Z,16.48
2018-02-17T08:39:21.039Z,14.15
2018-02-17T08:40:23.498Z,20.12
2018-02-17T08:41:26.004Z,12.52
2018-02-17T08:42:28.484Z,14.87
2018-02-17T08:43:30.959Z,20.33
2018-02-17T08:44:33.452Z,20.83
2018-02-17T08:45:35.956Z,15.48
2018-02-17T08:46:38.507Z,17.92
2018-02-17T08:47:40.980Z,19.33
2018-02-17T08:48:43.521Z,15.32
2018-02-17T08:49:45.997Z,16.05
2018-02-17T08:50:48.459Z,11.57
2018-02-17T08:51:50.948Z,16.98
2018-02-17T08:52:53.419Z,18.25
2018-02-17T08:53:55.933Z,16.55
2018-02-17T08:54:58.412Z,21.37
2018-02-17T08:56:00.889Z,17.60
2018-02-17T08:57:03.387Z,14.15
2018-02-17T08:58:05.890Z,14.80
2018-02-17T08:59:08.386Z,20.60
2018-02-17T09:00:10.861Z,16.00
2018-02-17T09:01:13.347Z,24.37
2018-02-17T09:02:15.827Z,13.57
2018-02-17T09:03:18.299Z,28.17
2018-02-17T09:04:20.789Z,16.90
2018-02-17T09:05:23.273Z,17.02
2018-02-17T09:06:25.762Z,17.98
2018-02-17T09:07:28.279Z,20.35
2018-02-17T09:08:30.759Z,18.17
2018-02-17T09:09:33.277Z,19.70
2018-02-17T09:10:48.577Z,14.18
2018-02-17T09:11:51.070Z,16.60
2018-02-17T09:12:53.572Z,18.12
2018-02-17T09:13:56.057Z,18.20
2018-02-17T09:14:58.545Z,16.02
2018-02-17T09:16:01.025Z,13.73
2018-02-17T09:17:03.566Z,16.30
2018-02-17T09:18:06.181Z,20.65
2018-02-17T09:19:08.679Z,21.12
2018-02-17T09:20:11.176Z,19.08
2018-02-17T09:21:13.656Z,21.77
2018-02-17T09:22:16.164Z,22.35
2018-02-17T09:23:18.666Z,23.20
2018-02-17T09:24:21.157Z,26.58
2018-02-17T09:25:23.635Z,26.80
2018-02-17T09:26:26.117Z,37.78
2018-02-17T09:27:28.634Z,27.20
2018-02-17T09:28:31.219Z,31.90
2018-02-17T09:29:33.727Z,27.87
2018-02-17T09:30:36.928Z,33.97
2018-02-17T09:31:39.741Z,27.23
2018-02-17T09:32:42.295Z,35.72
2018-02-17T09:33:44.849Z,31.50
2018-02-17T09:34:47.353Z,21.33
2018-02-17T09:35:49.841Z,28.40
2018-02-17T09:36:52.320Z,24.23
2018-02-17T09:37:54.821Z,18.42
2018-02-17T09:38:57.391Z,22.48
2018-02-17T09:39:59.872Z,23.77
2018-02-17T09:41:02.458Z,20.27
2018-02-17T09:42:04.991Z,17.58
2018-02-17T09:43:07.475Z,18.95
2018-02-17T09:44:10.031Z,23.33
2018-02-17T09:45:12.513Z,34.13
2018-02-17T09:46:15.011Z,19.17
2018-02-17T09:47:17.516Z,17.77
2018-02-17T09:48:20.017Z,16.90
2018-02-17T09:49:22.519Z,27.58
2018-02-17T09:50:24.993Z,21.62
2018-02-17T09:51:27.496Z,18.62
2018-02-17T09:52:30.060Z,20.52
2018-02-17T09:53:32.541Z,22.48
2018-02-17T09:54:35.035Z,23.42
2018-02-17T09:55:37.507Z,20.05
2018-02-17T09:56:40.047Z,30.80
2018-02-17T09:57:42.624Z,25.30
2018-02-17T09:58:45.163Z,25.17
2018-02-17T09:59:47.667Z,16.80
2018-02-17T10:00:50.143Z,14.85
2018-02-17T10:01:52.634Z,18.27
2018-02-17T10:02:55.117Z,18.27
2018-02-17T10:03:57.623Z,23.20
2018-02-17T10:05:00.126Z,20.83
2018-02-17T10:06:02.603Z,21.98
2018-02-17T10:07:05.100Z,25.67
2018-02-17T10:08:07.586Z,18.33
2018-02-17T10:09:10.125Z,15.98
2018-02-17T10:10:12.633Z,13.30
2018-02-17T10:11:15.130Z,15.60
2018-02-17T10:12:17.628Z,17.30
2018-02-17T10:13:20.099Z,17.83
2018-02-17T10:14:22.594Z,18.77
2018-02-17T10:15:25.112Z,11.98
2018-02-17T10:16:27.590Z,16.50
2018-02-17T10:17:30.068Z,19.92
2018-02-17T10:18:32.557Z,22.08
2018-02-17T10:19:35.345Z,21.80
2018-02-17T10:20:37.865Z,20.27
2018-02-17T10:21:40.489Z,20.40
2018-02-17T10:22:43.070Z,20.00
2018-02-17T10:23:45.552Z,30.95
2018-02-17T10:24:48.041Z,20.33
2018-02-17T10:25:50.532Z,28.02
2018-02-17T10:26:53.081Z,22.02
2018-02-17T10:27:55.567Z,19.33
2018-02-17T10:28:58.061Z,17.05
2018-02-17T10:30:00.554Z,17.95
2018-02-17T10:31:03.044Z,18.40
2018-02-17T10:32:05.530Z,26.08
2018-02-17T10:33:08.033Z,14.73
2018-02-17T10:34:10.512Z,21.62
2018-02-17T10:35:12.997Z,24.12
2018-02-17T10:36:15.514Z,25.92
2018-02-17T10:37:18.006Z,16.70
2018-02-17T10:38:20.496Z,15.90
2018-02-17T10:39:22.963Z,20.45
2018-02-17T10:40:25.454Z,22.98
2018-02-17T10:41:27.976Z,15.80
2018-02-17T10:42:30.464Z,13.38
2018-02-17T10:43:32.965Z,20.33
2018-02-17T10:44:35.432Z,19.90
2018-02-17T10:45:37.943Z,13.98
2018-02-17T10:46:40.506Z,25.60
2018-02-17T10:47:43.002Z,20.80
2018-02-17T10:48:45.498Z,14.27
2018-02-17T10:49:47.971Z,15.05
2018-02-17T10:50:50.439Z,18.40
2018-02-17T10:51:52.928Z,14.45
2018-02-17T10:52:55.410Z,19.10
2018-02-17T10:53:57.901Z,23.85
2018-02-17T10:55:00.390Z,14.65
2018-02-17T10:56:02.886Z,17.00
2018-02-17T10:57:05.385Z,14.20
2018-02-17T10:58:07.890Z,23.98
2018-02-17T10:59:10.361Z,25.60
2018-02-17T11:00:12.878Z,19.10
2018-02-17T11:01:15.383Z,19.45
2018-02-17T11:02:17.891Z,15.88
2018-02-17T11:03:20.369Z,19.67
2018-02-17T11:04:22.865Z,19.00
2018-02-17T11:05:25.339Z,21.83
2018-02-17T11:06:27.836Z,20.08
2018-02-17T11:07:30.347Z,15.23
2018-02-17T11:08:32.816Z,20.05
2018-02-17T11:09:35.284Z,20.65
2018-02-17T11:10:37.777Z,15.13
2018-02-17T11:11:40.424Z,20.92
2018-02-17T11:12:42.934Z,14.85
2018-02-17T11:13:45.424Z,16.98
2018-02-17T11:14:48.004Z,17.92
2018-02-17T11:15:50.472Z,15.25
2018-02-17T11:16:53.023Z,16.12
2018-02-17T11:17:55.503Z,14.15
2018-02-17T11:18:57.972Z,15.30
2018-02-17T11:20:00.448Z,29.25
2018-02-17T11:21:02.918Z,24.63
2018-02-17T11:22:05.414Z,29.98
2018-02-17T11:23:07.907Z,17.30
2018-02-17T11:24:10.384Z,18.75
2018-02-17T11:25:12.884Z,12.45
2018-02-17T11:26:15.461Z,14.70
2018-02-17T11:27:17.951Z,12.13
2018-02-17T11:28:20.469Z,26.05
2018-02-17T11:29:22.954Z,15.57
2018-02-17T11:30:25.446Z,12.45
2018-02-17T11:31:27.938Z,14.60
2018-02-17T11:32:30.427Z,23.67
2018-02-17T11:33:32.920Z,14.77
2018-02-17T11:34:35.410Z,15.70
2018-02-17T11:35:37.894Z,16.27
2018-02-17T11:36:40.471Z,19.83
2018-02-17T11:37:42.992Z,11.38
2018-02-17T11:38:45.488Z,20.37
2018-02-17T11:39:47.961Z,17.10
2018-02-17T11:40:50.478Z,20.35
2018-02-17T11:41:52.950Z,15.95
2018-02-17T11:42:55.435Z,17.95
2018-02-17T11:43:57.945Z,17.25
2018-02-17T11:45:00.431Z,12.48
2018-02-17T11:46:02.899Z,21.87
2018-02-17T11:47:05.393Z,19.90
2018-02-17T11:48:07.877Z,14.77
2018-02-17T11:49:10.369Z,14.52
2018-02-17T11:50:12.904Z,15.35
2018-02-17T11:51:15.379Z,14.07
2018-02-17T11:52:17.860Z,14.18
2018-02-17T11:53:20.339Z,15.98
2018-02-17T11:54:22.863Z,18.83
2018-02-17T11:55:25.373Z,14.98
2018-02-17T11:56:27.871Z,19.48
2018-02-17T11:57:30.347Z,16.48
2018-02-17T11:58:32.833Z,14.75
2018-02-17T11:59:35.346Z,14.95
2018-02-17T12:00:37.879Z,18.35
2018-02-17T12:01:40.351Z,14.87
2018-02-17T12:02:42.837Z,19.17
2018-02-17T12:03:45.325Z,11.65
2018-02-17T12:04:47.827Z,17.70
2018-02-17T12:05:50.295Z,13.77
2018-02-17T12:06:52.793Z,15.73
2018-02-17T12:07:55.274Z,15.65
2018-02-17T12:08:57.823Z,12.13
2018-02-17T12:10:00.370Z,10.75
2018-02-17T12:11:02.837Z,15.80
2018-02-17T12:12:05.336Z,14.18
2018-02-17T12:13:07.830Z,11.00
2018-02-17T12:14:10.321Z,14.40
2018-02-17T12:15:12.833Z,14.48
2018-02-17T12:16:15.311Z,22.37
2018-02-17T12:17:17.802Z,13.23
2018-02-17T12:18:20.302Z,28.42
2018-02-17T12:19:22.780Z,14.30
2018-02-17T12:20:25.280Z,14.20
2018-02-17T12:21:27.766Z,13.40
2018-02-17T12:22:30.257Z,19.10
2018-02-17T12:23:32.773Z,12.40
2018-02-17T12:24:35.265Z,15.35
2018-02-17T12:25:37.784Z,13.88
2018-02-17T12:26:40.319Z,12.37
2018-02-17T12:27:42.781Z,15.35
2018-02-17T12:28:45.270Z,18.65
2018-02-17T12:29:47.786Z,16.67
2018-02-17T12:30:50.290Z,20.65
2018-02-17T12:31:52.775Z,19.00
2018-02-17T12:32:56.739Z,15.00
2018-02-17T12:33:59.856Z,15.70
2018-02-17T12:35:02.864Z,15.52
2018-02-17T12:36:05.397Z,12.45
2018-02-17T12:37:07.970Z,13.00
2018-02-17T12:38:10.468Z,19.60
2018-02-17T12:39:13.041Z,16.98
2018-02-17T12:40:15.533Z,12.52
2018-02-17T12:41:18.065Z,21.48
2018-02-17T12:42:20.544Z,16.27
2018-02-17T12:43:23.027Z,15.38
2018-02-17T12:44:25.503Z,9.95
2018-02-17T12:45:28.014Z,21.45
2018-02-17T12:46:30.521Z,19.55
2018-02-17T12:47:33.008Z,13.18
2018-02-17T12:48:35.503Z,13.23
2018-02-17T12:49:38.002Z,11.75
2018-02-17T12:50:40.528Z,18.35
2018-02-17T12:51:43.053Z,12.90
2018-02-17T12:52:45.594Z,10.88
2018-02-17T12:53:48.132Z,9.68
2018-02-17T12:54:50.654Z,18.95
2018-02-17T12:55:53.143Z,13.73
2018-02-17T12:56:55.631Z,12.32
2018-02-17T12:57:58.122Z,16.77
2018-02-17T12:59:00.597Z,11.65
2018-02-17T13:00:03.089Z,13.25
2018-02-17T13:01:05.577Z,14.38
2018-02-17T13:02:08.078Z,11.10
2018-02-17T13:03:10.564Z,20.20
2018-02-17T13:04:13.039Z,19.10
2018-02-17T13:05:15.520Z,10.65
2018-02-17T13:06:18.001Z,11.25
2018-02-17T13:07:20.499Z,12.63
2018-02-17T13:08:22.980Z,12.32
2018-02-17T13:09:25.444Z,9.35
2018-02-17T13:10:27.913Z,15.75
2018-02-17T13:11:30.395Z,8.73
2018-02-17T13:12:32.903Z,13.52
2018-02-17T13:13:35.464Z,17.37
2018-02-17T13:14:37.907Z,11.75
2018-02-17T13:15:40.398Z,12.02
2018-02-17T13:16:42.868Z,16.08
2018-02-17T13:17:45.379Z,17.55
2018-02-17T13:18:47.870Z,23.67
2018-02-17T13:19:50.421Z,14.25
2018-02-17T13:20:52.873Z,12.75
2018-02-17T13:21:55.346Z,16.58
2018-02-17T13:22:57.833Z,7.37
2018-02-17T13:24:00.317Z,10.80
2018-02-17T13:25:02.787Z,10.05
2018-02-17T13:26:05.263Z,8.43
2018-02-17T13:27:07.781Z,10.90
2018-02-17T13:28:10.280Z,12.70
2018-02-17T13:29:12.772Z,10.70
2018-02-17T13:30:15.253Z,9.95
2018-02-17T13:31:17.720Z,10.77
2018-02-17T13:32:20.219Z,14.43
2018-02-17T13:33:22.726Z,10.65
2018-02-17T13:34:25.251Z,8.20
2018-02-17T13:35:27.730Z,11.10
2018-02-17T13:36:30.199Z,11.70
2018-02-17T13:37:32.678Z,7.93
2018-02-17T13:38:35.194Z,8.38
2018-02-17T13:39:37.676Z,10.43
2018-02-17T13:40:40.155Z,7.87
2018-02-17T13:41:42.654Z,13.77
2018-02-17T13:42:45.138Z,10.27
2018-02-17T13:43:47.643Z,12.23
2018-02-17T13:44:50.159Z,15.05
2018-02-17T13:45:52.686Z,12.55
2018-02-17T13:46:55.154Z,19.35
2018-02-17T13:47:57.637Z,13.48
2018-02-17T13:49:00.140Z,13.43
2018-02-17T13:50:02.633Z,14.10
2018-02-17T13:51:05.114Z,12.45
2018-02-17T13:52:07.597Z,8.13
2018-02-17T13:53:10.085Z,11.98
2018-02-17T13:54:12.592Z,11.00
2018-02-17T13:55:15.073Z,16.65
2018-02-17T13:56:17.565Z,11.73
2018-02-17T13:57:20.035Z,13.20
2018-02-17T13:58:22.507Z,8.55
2018-02-17T13:59:25.034Z,16.73
2018-02-17T14:00:27.562Z,9.63
2018-02-17T14:01:30.084Z,11.90
2018-02-17T14:02:32.604Z,12.43
2018-02-17T14:03:35.083Z,15.05
2018-02-17T14:04:37.595Z,8.27
2018-02-17T14:05:40.145Z,8.13
2018-02-17T14:06:42.680Z,9.95
2018-02-17T14:07:45.166Z,13.30
2018-02-17T14:08:47.665Z,10.88
2018-02-17T14:09:50.177Z,11.07
2018-02-17T14:10:52.709Z,15.27
2018-02-17T14:11:55.204Z,7.57
2018-02-17T14:12:57.683Z,8.68
2018-02-17T14:14:00.156Z,10.77
2018-02-17T14:15:02.643Z,11.48
2018-02-17T14:16:05.126Z,18.85
2018-02-17T14:17:07.596Z,9.05
2018-02-17T14:18:10.088Z,9.10
2018-02-17T14:19:12.563Z,10.20
2018-02-17T14:20:15.067Z,12.70
2018-02-17T14:21:17.553Z,10.32
2018-02-17T14:22:20.030Z,9.50
2018-02-17T14:23:22.515Z,9.27
2018-02-17T14:24:25.027Z,13.10
2018-02-17T14:25:27.515Z,8.82
2018-02-17T14:26:30.006Z,7.78
2018-02-17T14:27:32.496Z,9.15
2018-02-17T14:28:34.981Z,8.93
2018-02-17T14:29:37.469Z,9.93
2018-02-17T14:30:39.956Z,8.75
2018-02-17T14:31:42.445Z,11.88
2018-02-17T14:32:44.928Z,11.75
2018-02-17T14:33:47.388Z,6.43
2018-02-17T14:34:49.856Z,9.77
2018-02-17T14:35:52.352Z,10.55
2018-02-17T14:36:54.840Z,15.70
2018-02-17T14:37:57.325Z,5.95
2018-02-17T14:38:59.805Z,14.40
2018-02-17T14:40:02.314Z,7.40
2018-02-17T14:41:04.803Z,10.02
2018-02-17T14:42:07.286Z,7.18
2018-02-17T14:43:09.761Z,8.98
2018-02-17T14:44:12.223Z,10.70
2018-02-17T14:45:14.683Z,7.55
2018-02-17T14:46:17.193Z,7.20
2018-02-17T14:47:19.660Z,9.93
2018-02-17T14:48:22.149Z,6.03
2018-02-17T14:49:24.672Z,6.40
2018-02-17T14:50:27.140Z,7.00
2018-02-17T14:51:29.657Z,13.77
2018-02-17T14:52:32.150Z,13.65
2018-02-17T14:53:34.619Z,11.80
2018-02-17T14:54:37.100Z,16.02
2018-02-17T14:55:39.581Z,15.77
2018-02-17T14:56:42.095Z,10.88
2018-02-17T14:57:44.573Z,5.57
2018-02-17T14:58:47.035Z,11.10
2018-02-17T14:59:49.519Z,6.15
2018-02-17T15:00:52.030Z,12.25
2018-02-17T15:01:54.555Z,11.15
2018-02-17T15:02:57.024Z,8.25
2018-02-17T15:03:59.502Z,6.57
2018-02-17T15:05:01.974Z,8.98
2018-02-17T15:06:04.448Z,10.52
2018-02-17T15:07:07.047Z,23.98
2018-02-17T15:08:09.511Z,8.85
2018-02-17T15:09:11.979Z,15.40
2018-02-17T15:10:14.435Z,7.72
2018-02-17T15:11:16.909Z,7.95
2018-02-17T15:12:19.422Z,9.40
2018-02-17T15:13:21.884Z,8.43
2018-02-17T15:14:24.358Z,6.80
2018-02-17T15:15:26.816Z,6.57
2018-02-17T15:16:29.279Z,6.82
2018-02-17T15:17:31.769Z,12.32
2018-02-17T15:18:34.228Z,6.78
2018-02-17T15:19:36.704Z,7.53
2018-02-17T15:20:39.185Z,10.68
2018-02-17T15:21:41.659Z,7.00
2018-02-17T15:22:44.164Z,8.32
2018-02-17T15:23:46.639Z,11.68
2018-02-17T15:24:49.129Z,9.35
2018-02-17T15:25:51.619Z,13.90
2018-02-17T15:26:54.115Z,11.70
2018-02-17T15:27:56.604Z,15.23
2018-02-17T15:28:59.115Z,7.60
2018-02-17T15:30:01.597Z,13.25
2018-02-17T15:31:04.081Z,12.52
2018-02-17T15:32:06.557Z,13.25
2018-02-17T15:33:09.067Z,18.48
2018-02-17T15:34:11.536Z,17.17
2018-02-17T15:35:14.030Z,11.65
2018-02-17T15:36:16.507Z,27.02
2018-02-17T15:37:19.032Z,13.45
2018-02-17T15:38:21.533Z,16.08
2018-02-17T15:39:24.024Z,11.02
2018-02-17T15:40:26.503Z,13.95
2018-02-17T15:41:28.989Z,14.00
2018-02-17T15:42:31.466Z,15.35
2018-02-17T15:43:33.958Z,19.50
2018-02-17T15:44:36.436Z,16.37
2018-02-17T15:45:38.897Z,8.52
2018-02-17T15:46:41.376Z,14.02
2018-02-17T15:47:43.855Z,10.73
2018-02-17T15:48:46.362Z,21.65
2018-02-17T15:49:48.864Z,12.18
2018-02-17T15:50:51.379Z,23.12
2018-02-17T15:51:53.865Z,21.87
2018-02-17T15:52:56.358Z,15.00
2018-02-17T15:53:58.860Z,12.35
2018-02-17T15:55:01.337Z,10.20
2018-02-17T15:56:03.824Z,11.65
2018-02-17T15:57:06.302Z,11.00
2018-02-17T15:58:08.775Z,12.68
2018-02-17T15:59:11.264Z,12.27
2018-02-17T16:00:13.762Z,14.00
2018-02-17T16:01:16.231Z,12.07
2018-02-17T16:02:18.716Z,9.77
2018-02-17T16:03:21.213Z,12.65
2018-02-17T16:04:23.837Z,11.50
2018-02-17T16:05:26.333Z,10.75
2018-02-17T16:06:28.805Z,9.40
2018-02-17T16:07:31.272Z,10.20
2018-02-17T16:08:33.744Z,9.48
2018-02-17T16:09:36.257Z,19.90
2018-02-17T16:10:38.741Z,13.77
2018-02-17T16:11:41.238Z,13.98
2018-02-17T16:12:43.734Z,12.68
2018-02-17T16:13:46.290Z,10.60
2018-02-17T16:14:48.802Z,8.57
2018-02-17T16:15:51.314Z,12.65
2018-02-17T16:16:53.778Z,8.75
2018-02-17T16:17:56.255Z,9.68
2018-02-17T16:18:58.740Z,11.93
2018-02-17T16:20:01.248Z,14.63
2018-02-17T16:21:03.723Z,14.95
2018-02-17T16:22:06.210Z,9.02
2018-02-17T16:23:08.693Z,17.23
2018-02-17T16:24:11.167Z,16.12
2018-02-17T16:25:13.697Z,12.55
2018-02-17T16:26:16.174Z,10.63
2018-02-17T16:27:18.643Z,9.57
2018-02-17T16:28:21.130Z,16.58
2018-02-17T16:29:23.613Z,7.62
2018-02-17T16:30:26.103Z,8.65
2018-02-17T16:31:28.673Z,11.73
2018-02-17T16:32:31.165Z,15.05
2018-02-17T16:33:33.678Z,14.63
2018-02-17T16:34:36.166Z,13.40
2018-02-17T16:35:38.655Z,10.88
2018-02-17T16:36:41.126Z,15.75
2018-02-17T16:37:43.614Z,15.65
2018-02-17T16:38:46.101Z,16.30
2018-02-17T16:39:48.592Z,14.20
2018-02-17T16:40:51.091Z,18.25
2018-02-17T16:41:53.584Z,19.48
2018-02-17T16:42:56.075Z,15.73
2018-02-17T16:43:58.564Z,15.50
2018-02-17T16:45:01.066Z,18.33
2018-02-17T16:46:03.573Z,20.45
2018-02-17T16:47:06.071Z,18.05
2018-02-17T16:48:08.565Z,19.83
2018-02-17T16:49:11.065Z,13.98
2018-02-17T16:50:13.554Z,14.07
2018-02-17T16:51:16.048Z,18.12
2018-02-17T16:52:18.524Z,17.73
2018-02-17T16:53:21.210Z,14.82
2018-02-17T16:54:23.683Z,19.95
2018-02-17T16:55:26.181Z,19.73
2018-02-17T16:56:28.690Z,14.48
2018-02-17T16:57:31.161Z,21.20
2018-02-17T16:58:33.632Z,18.70
2018-02-17T16:59:36.165Z,20.67
2018-02-17T17:00:38.635Z,24.80
2018-02-17T17:01:41.133Z,22.77
2018-02-17T17:02:43.639Z,22.45
2018-02-17T17:03:46.126Z,24.80
2018-02-17T17:04:48.618Z,28.42
2018-02-17T17:05:51.110Z,26.83
2018-02-17T17:06:53.600Z,34.00
2018-02-17T17:07:56.091Z,27.60
2018-02-17T17:08:58.568Z,28.65
2018-02-17T17:10:01.111Z,29.55
2018-02-17T17:11:03.592Z,28.10
2018-02-17T17:12:06.085Z,27.87
2018-02-17T17:13:08.578Z,29.17
2018-02-17T17:14:11.103Z,28.75
2018-02-17T17:15:13.567Z,39.08
2018-02-17T17:16:16.075Z,33.83
2018-02-17T17:17:19.102Z,28.60
2018-02-17T17:18:21.594Z,29.12
2018-02-17T17:19:24.127Z,30.80
2018-02-17T17:20:26.595Z,32.38
2018-02-17T17:21:29.081Z,32.83
2018-02-17T17:22:31.590Z,30.00
2018-02-17T17:23:34.075Z,24.80
2018-02-17T17:24:36.580Z,25.52
2018-02-17T17:25:39.047Z,22.77
2018-02-17T17:26:41.538Z,26.75
2018-02-17T17:27:44.057Z,22.13
2018-02-17T17:28:46.527Z,20.25
2018-02-17T17:29:49.030Z,24.12
2018-02-17T17:30:51.634Z,26.37
2018-02-17T17:31:54.125Z,18.37
2018-02-17T17:32:56.664Z,18.75
2018-02-17T17:33:59.164Z,20.50
2018-02-17T17:35:01.641Z,18.05
2018-02-17T17:36:04.121Z,27.13
2018-02-17T17:37:06.609Z,23.40
2018-02-17T17:38:09.110Z,21.87
2018-02-17T17:39:11.580Z,23.17
2018-02-17T17:40:14.056Z,22.42
2018-02-17T17:41:16.545Z,27.67
2018-02-17T17:42:19.051Z,23.58
2018-02-17T17:43:21.575Z,22.52
2018-02-17T17:44:24.080Z,22.98
2018-02-17T17:45:26.577Z,24.63
2018-02-17T17:46:29.098Z,18.23
2018-02-17T17:47:31.674Z,25.45
2018-02-17T17:48:34.172Z,27.73
2018-02-17T17:49:36.643Z,23.00
2018-02-17T17:50:39.153Z,24.10
2018-02-17T17:51:41.712Z,24.15
2018-02-17T17:52:44.192Z,26.52
2018-02-17T17:53:46.683Z,18.23
2018-02-17T17:54:49.253Z,21.27
2018-02-17T17:55:51.730Z,22.62
2018-02-17T17:56:54.304Z,28.40
2018-02-17T17:57:56.776Z,22.60
2018-02-17T17:58:59.297Z,22.23
2018-02-17T18:00:01.778Z,25.23
2018-02-17T18:01:04.282Z,23.10
2018-02-17T18:02:06.776Z,28.98
2018-02-17T18:03:09.263Z,25.75
2018-02-17T18:04:11.768Z,30.58
2018-02-17T18:05:14.287Z,34.47
2018-02-17T18:06:16.751Z,29.80
2018-02-17T18:07:19.233Z,30.30
2018-02-17T18:08:21.714Z,34.88
2018-02-17T18:09:24.212Z,33.58
2018-02-17T18:10:26.701Z,33.30
2018-02-17T18:11:29.193Z,33.75
2018-02-17T18:12:31.682Z,26.80
2018-02-17T18:13:34.154Z,30.23
2018-02-17T18:14:36.670Z,27.33
2018-02-17T18:15:39.160Z,32.55
2018-02-17T18:16:41.640Z,28.12
2018-02-17T18:17:44.116Z,28.87
2018-02-17T18:18:46.609Z,34.17
2018-02-17T18:19:49.200Z,28.23
2018-02-17T18:20:51.690Z,25.23
2018-02-17T18:21:54.218Z,35.00
2018-02-17T18:22:56.687Z,31.77
2018-02-17T18:23:59.161Z,38.10
2018-02-17T18:25:01.669Z,31.80
2018-02-17T18:26:04.161Z,35.58
2018-02-17T18:27:06.631Z,31.37
2018-02-17T18:28:09.127Z,31.95
2018-02-17T18:29:11.603Z,34.38
2018-02-17T18:30:14.190Z,34.70
2018-02-17T18:31:16.679Z,37.10
2018-02-17T18:32:19.210Z,33.53
2018-02-17T18:33:21.669Z,36.63
2018-02-17T18:34:24.155Z,34.75
2018-02-17T18:35:26.696Z,35.80
2018-02-17T18:36:29.167Z,36.83
2018-02-17T18:37:31.649Z,28.25
2018-02-17T18:38:34.119Z,34.78
2018-02-17T18:39:36.598Z,37.30
2018-02-17T18:40:39.109Z,37.17
2018-02-17T18:41:41.598Z,32.90
2018-02-17T18:42:44.193Z,40.45
2018-02-17T18:43:46.682Z,39.13
2018-02-17T18:44:49.174Z,41.58
2018-02-17T18:45:51.668Z,48.03
2018-02-17T18:46:54.136Z,44.92
2018-02-17T18:47:56.611Z,45.58
2018-02-17T18:48:59.093Z,46.22
2018-02-17T18:50:01.581Z,45.78
2018-02-17T18:51:04.070Z,45.95
2018-02-17T18:52:06.547Z,47.28
2018-02-17T18:53:09.057Z,46.00
2018-02-17T18:54:11.557Z,46.55
2018-02-17T18:55:14.053Z,51.47
2018-02-17T18:56:16.570Z,41.15
2018-02-17T18:57:19.057Z,49.17
2018-02-17T18:58:21.519Z,45.95
2018-02-17T18:59:23.987Z,54.70
2018-02-17T19:00:26.455Z,47.65
2018-02-17T19:01:28.951Z,40.78
2018-02-17T19:02:31.419Z,41.00
2018-02-17T19:03:33.887Z,40.88
2018-02-17T19:04:36.378Z,49.20
2018-02-17T19:05:38.944Z,58.30
2018-02-17T19:06:41.612Z,49.25
2018-02-17T19:07:44.102Z,50.42
2018-02-17T19:08:46.575Z,47.97
2018-02-17T19:09:49.052Z,47.20
2018-02-17T19:10:51.535Z,53.90
2018-02-17T19:11:54.094Z,42.40
2018-02-17T19:12:56.602Z,49.83
2018-02-17T19:13:59.078Z,52.38
2018-02-17T19:15:01.556Z,45.70
2018-02-17T19:16:04.036Z,45.12
2018-02-17T19:17:06.527Z,44.05
2018-02-17T19:18:08.991Z,47.15
2018-02-17T19:19:11.459Z,48.95
2018-02-17T19:20:13.964Z,55.67
2018-02-17T19:21:16.463Z,41.30
2018-02-17T19:22:18.981Z,51.83
2018-02-17T19:23:21.454Z,42.42
2018-02-17T19:24:23.942Z,46.53
2018-02-17T19:25:26.435Z,49.08
2018-02-17T19:26:28.923Z,56.22
2018-02-17T19:27:31.439Z,45.75
2018-02-17T19:28:33.941Z,40.00
2018-02-17T19:29:37.217Z,47.88
2018-02-17T19:30:39.710Z,40.90
2018-02-17T19:31:42.200Z,44.58
2018-02-17T19:32:44.702Z,43.78
2018-02-17T19:33:47.196Z,39.33
2018-02-17T19:34:49.676Z,48.00